Time;durP1;ratioP1;P1;durP2;ratioP2;P2;SDS_P1;SDS_P2;PMS_P1;PMS_P2;Temp;Humidity;BMP_temperature;BMP_pressure;BME280_temperature;BME280_humidity;BME280_pressure;Samples;Min_cycle;Max_cycle;Signal;HPM_P1;HPM_P2
2022/12/13 00:01:14;;;;;;;26.97;15.77;;;;;;;;;;5014725;28;20958;-47
2022/12/13 00:03:40;;;;;;;28.30;17.37;;;;;;;;;;5014539;28;20449;-47
2022/12/13 00:06:07;;;;;;;23.63;15.63;;;;;;;;;;5015055;28;20487;-47
2022/12/13 00:08:33;;;;;;;25.47;16.87;;;;;;;;;;5014844;28;20440;-47
2022/12/13 00:11:01;;;;;;;22.20;14.63;;;;;;;;;;5014611;28;20924;-47
2022/12/13 00:13:27;;;;;;;22.73;15.63;;;;;;;;;;5014567;28;20440;-47
2022/12/13 00:15:56;;;;;;;25.47;16.00;;;;;;;;;;5014456;28;20819;-47
2022/12/13 00:18:22;;;;;;;24.43;15.83;;;;;;;;;;5014616;28;20622;-47
2022/12/13 00:20:48;;;;;;;25.40;15.63;;;;;;;;;;5014320;28;20484;-47
2022/12/13 00:23:14;;;;;;;29.33;16.83;;;;;;;;;;5014524;28;20914;-47
2022/12/13 00:25:40;;;;;;;21.70;14.03;;;;;;;;;;5014397;28;20985;-47
2022/12/13 00:28:08;;;;;;;29.27;16.10;;;;;;;;;;5014082;28;20445;-47
2022/12/13 00:30:34;;;;;;;25.03;16.17;;;;;;;;;;5014220;28;20436;-47
2022/12/13 00:33:00;;;;;;;24.47;15.23;;;;;;;;;;5014203;28;20915;-47
2022/12/13 00:35:26;;;;;;;23.63;14.97;;;;;;;;;;5014042;28;20462;-47
2022/12/13 00:37:52;;;;;;;22.80;14.43;;;;;;;;;;5013915;28;20583;-47
2022/12/13 00:40:18;;;;;;;24.70;15.67;;;;;;;;;;5013767;28;20860;-46
2022/12/13 00:42:44;;;;;;;23.47;14.27;;;;;;;;;;5013951;28;20462;-47
2022/12/13 00:45:12;;;;;;;24.97;14.47;;;;;;;;;;5014349;28;20440;-47
2022/12/13 00:47:38;;;;;;;21.63;14.33;;;;;;;;;;5014000;28;20441;-47
2022/12/13 00:50:05;;;;;;;21.53;14.30;;;;;;;;;;5013946;28;20792;-46
2022/12/13 00:52:31;;;;;;;23.00;15.17;;;;;;;;;;5011881;28;20479;-47
2022/12/13 00:54:57;;;;;;;22.10;14.07;;;;;;;;;;5012400;28;20433;-47
2022/12/13 00:57:23;;;;;;;22.07;14.97;;;;;;;;;;5014049;28;20472;-47
2022/12/13 00:59:49;;;;;;;23.07;14.40;;;;;;;;;;5013388;28;20437;-46
2022/12/13 01:02:17;;;;;;;23.90;14.53;;;;;;;;;;5013796;28;20473;-47
2022/12/13 01:04:43;;;;;;;22.83;14.07;;;;;;;;;;5013576;28;20851;-46
2022/12/13 01:07:09;;;;;;;26.07;15.37;;;;;;;;;;5013884;28;20429;-47
2022/12/13 01:09:35;;;;;;;20.77;14.30;;;;;;;;;;5012738;28;20837;-47
2022/12/13 01:12:02;;;;;;;24.43;14.50;;;;;;;;;;5013525;28;20940;-47
2022/12/13 01:14:31;;;;;;;25.37;14.57;;;;;;;;;;5013482;28;20860;-47
2022/12/13 01:16:57;;;;;;;26.43;14.57;;;;;;;;;;5013345;28;20962;-47
2022/12/13 01:19:26;;;;;;;20.83;15.13;;;;;;;;;;5013544;28;20891;-49
2022/12/13 01:21:53;;;;;;;24.27;15.27;;;;;;;;;;5013418;28;20440;-49
2022/12/13 01:24:21;;;;;;;23.47;14.17;;;;;;;;;;5013320;28;20470;-48
2022/12/13 01:26:48;;;;;;;23.27;14.77;;;;;;;;;;5013370;28;21005;-48
2022/12/13 01:29:14;;;;;;;25.00;14.30;;;;;;;;;;5013227;28;20448;-48
2022/12/13 01:31:40;;;;;;;20.67;14.53;;;;;;;;;;5013222;28;20528;-48
2022/12/13 01:34:09;;;;;;;20.57;13.47;;;;;;;;;;5013158;28;20465;-48
2022/12/13 01:36:37;;;;;;;24.47;15.03;;;;;;;;;;5013086;28;20436;-49
2022/12/13 01:39:03;;;;;;;19.43;13.60;;;;;;;;;;5012864;28;20477;-49
2022/12/13 01:41:29;;;;;;;21.40;14.30;;;;;;;;;;5012996;28;20437;-49
2022/12/13 01:43:59;;;;;;;21.23;14.50;;;;;;;;;;5013213;28;20449;-48
2022/12/13 01:46:25;;;;;;;21.57;13.50;;;;;;;;;;5013041;28;20571;-48
2022/12/13 01:48:55;;;;;;;19.80;13.10;;;;;;;;;;5012796;28;20443;-48
2022/12/13 01:51:25;;;;;;;21.00;14.00;;;;;;;;;;5013008;28;20437;-49
2022/12/13 01:53:53;;;;;;;20.93;13.33;;;;;;;;;;5012894;28;20761;-49
2022/12/13 01:56:20;;;;;;;20.83;13.90;;;;;;;;;;5012836;28;20443;-49
2022/12/13 01:58:47;;;;;;;20.70;13.97;;;;;;;;;;5012509;28;20970;-49
2022/12/13 02:01:13;;;;;;;19.30;13.03;;;;;;;;;;5012635;28;20440;-48
2022/12/13 02:03:39;;;;;;;18.37;13.17;;;;;;;;;;5012608;28;20478;-49
2022/12/13 02:06:08;;;;;;;20.67;13.20;;;;;;;;;;5012671;28;20495;-48
2022/12/13 02:08:35;;;;;;;22.37;12.97;;;;;;;;;;5012611;28;20441;-48
2022/12/13 02:11:04;;;;;;;20.07;13.87;;;;;;;;;;5012551;28;20528;-49
2022/12/13 02:13:30;;;;;;;18.57;12.83;;;;;;;;;;5012398;28;20453;-48
2022/12/13 02:15:58;;;;;;;21.13;13.83;;;;;;;;;;5012373;28;20960;-48
2022/12/13 02:18:31;;;;;;;20.97;13.63;;;;;;;;;;5012498;28;20611;-49
2022/12/13 02:21:01;;;;;;;17.73;12.07;;;;;;;;;;5012029;28;20529;-49
2022/12/13 02:23:37;;;;;;;19.03;12.33;;;;;;;;;;5012126;28;20448;-48
2022/12/13 02:26:15;;;;;;;17.40;12.27;;;;;;;;;;5012390;28;20523;-48
2022/12/13 02:28:47;;;;;;;18.60;12.60;;;;;;;;;;5012442;28;20515;-48
2022/12/13 02:31:16;;;;;;;20.67;12.60;;;;;;;;;;5012215;28;20468;-48
2022/12/13 02:33:48;;;;;;;20.53;12.87;;;;;;;;;;5011787;28;20527;-49
2022/12/13 02:36:18;;;;;;;19.23;12.20;;;;;;;;;;5012144;28;20511;-48
2022/12/13 02:38:55;;;;;;;23.87;13.27;;;;;;;;;;5011896;28;20519;-49
2022/12/13 02:41:23;;;;;;;18.67;12.17;;;;;;;;;;5012238;28;20434;-49
2022/12/13 02:43:53;;;;;;;21.70;13.07;;;;;;;;;;5012116;28;20464;-49
2022/12/13 02:46:22;;;;;;;18.20;12.33;;;;;;;;;;5011902;28;20452;-49
2022/12/13 02:48:50;;;;;;;18.80;12.53;;;;;;;;;;5011729;28;20433;-48
2022/12/13 02:51:16;;;;;;;18.67;12.67;;;;;;;;;;5011959;28;21204;-48
2022/12/13 02:53:43;;;;;;;21.27;13.73;;;;;;;;;;5011753;28;20839;-48
2022/12/13 02:56:09;;;;;;;21.23;13.40;;;;;;;;;;5011983;28;20437;-48
2022/12/13 02:58:37;;;;;;;17.80;13.30;;;;;;;;;;5011622;28;20476;-48
2022/12/13 03:01:09;;;;;;;20.47;13.70;;;;;;;;;;5011693;28;20491;-49
2022/12/13 03:06:46;;;;;;;21.73;13.80;;;;;;;;;;5011705;28;20379;-49
2022/12/13 03:09:23;;;;;;;20.00;12.97;;;;;;;;;;5011416;28;20437;-48
2022/12/13 03:14:40;;;;;;;23.67;13.03;;;;;;;;;;5011717;28;20528;-48
2022/12/13 03:17:07;;;;;;;21.50;13.27;;;;;;;;;;5011481;28;20459;-49
2022/12/13 03:19:33;;;;;;;20.00;12.57;;;;;;;;;;5011237;28;20523;-48
2022/12/13 03:22:05;;;;;;;24.83;13.73;;;;;;;;;;5011399;28;20925;-48
2022/12/13 03:24:31;;;;;;;19.33;13.40;;;;;;;;;;5011360;28;20447;-48
2022/12/13 03:26:57;;;;;;;18.23;12.63;;;;;;;;;;5011297;28;20536;-49
2022/12/13 03:29:23;;;;;;;21.53;12.87;;;;;;;;;;5011506;28;20650;-48
2022/12/13 03:31:49;;;;;;;20.30;12.40;;;;;;;;;;5011171;28;20795;-49
2022/12/13 03:34:15;;;;;;;17.97;11.63;;;;;;;;;;5014477;28;20527;-49
2022/12/13 03:36:41;;;;;;;19.50;12.57;;;;;;;;;;5015336;28;20532;-49
2022/12/13 03:39:08;;;;;;;21.57;13.03;;;;;;;;;;5015408;28;20483;-49
2022/12/13 03:41:34;;;;;;;18.43;11.70;;;;;;;;;;5015209;28;20441;-48
2022/12/13 03:44:03;;;;;;;18.13;12.07;;;;;;;;;;5015283;28;20804;-49
2022/12/13 03:46:29;;;;;;;18.57;12.77;;;;;;;;;;5015096;28;20428;-48
2022/12/13 03:48:55;;;;;;;19.63;12.57;;;;;;;;;;5015223;28;20436;-48
2022/12/13 03:51:21;;;;;;;15.33;10.93;;;;;;;;;;5015452;28;20440;-48
2022/12/13 03:53:47;;;;;;;20.70;13.47;;;;;;;;;;5014971;28;20942;-48
2022/12/13 03:56:15;;;;;;;19.60;12.27;;;;;;;;;;5015026;28;20582;-48
2022/12/13 03:58:41;;;;;;;19.17;13.53;;;;;;;;;;5015223;28;20515;-58
2022/12/13 04:01:08;;;;;;;17.83;12.67;;;;;;;;;;5015157;28;20456;-48
2022/12/13 04:03:34;;;;;;;20.10;13.30;;;;;;;;;;5014728;28;20539;-48
2022/12/13 04:06:00;;;;;;;19.33;12.57;;;;;;;;;;5014819;28;20449;-48
2022/12/13 04:08:26;;;;;;;23.20;13.80;;;;;;;;;;5014727;28;20926;-48
2022/12/13 04:10:52;;;;;;;19.27;13.03;;;;;;;;;;5014819;28;20445;-48
2022/12/13 04:13:32;;;;;;;19.70;12.77;;;;;;;;;;5014732;28;20429;-49
2022/12/13 04:15:58;;;;;;;19.77;12.13;;;;;;;;;;5014493;28;20523;-48
2022/12/13 04:18:24;;;;;;;21.67;11.23;;;;;;;;;;5014428;28;21060;-48
2022/12/13 04:20:50;;;;;;;18.97;12.33;;;;;;;;;;5014394;28;20523;-49
2022/12/13 04:23:16;;;;;;;18.57;12.00;;;;;;;;;;5014461;28;20851;-48
2022/12/13 04:25:42;;;;;;;22.10;13.33;;;;;;;;;;5014404;28;20934;-49
2022/12/13 04:28:08;;;;;;;21.00;12.03;;;;;;;;;;5014587;28;20795;-48
2022/12/13 04:30:36;;;;;;;20.50;12.67;;;;;;;;;;5014184;28;20468;-49
2022/12/13 04:33:02;;;;;;;22.50;13.70;;;;;;;;;;5014390;28;20436;-49
2022/12/13 04:35:28;;;;;;;22.13;12.97;;;;;;;;;;5014079;28;20464;-49
2022/12/13 04:37:55;;;;;;;21.83;14.20;;;;;;;;;;5014037;28;20566;-49
2022/12/13 04:40:21;;;;;;;18.90;12.73;;;;;;;;;;5014279;28;20526;-49
2022/12/13 04:42:48;;;;;;;17.13;12.27;;;;;;;;;;5013981;28;20440;-48
2022/12/13 04:45:15;;;;;;;17.63;11.97;;;;;;;;;;5014041;28;20433;-48
2022/12/13 04:47:43;;;;;;;22.57;12.87;;;;;;;;;;5014006;28;20436;-48
2022/12/13 04:50:09;;;;;;;21.23;13.40;;;;;;;;;;5014044;28;20797;-48
2022/12/13 04:52:36;;;;;;;20.77;12.90;;;;;;;;;;5013955;28;20451;-49
2022/12/13 04:55:02;;;;;;;23.57;14.10;;;;;;;;;;5013848;28;20877;-49
2022/12/13 04:57:28;;;;;;;24.20;15.40;;;;;;;;;;5013808;28;20508;-49
2022/12/13 04:59:54;;;;;;;23.83;13.90;;;;;;;;;;5013920;28;20444;-49
2022/12/13 05:02:20;;;;;;;23.07;13.43;;;;;;;;;;5013789;28;20448;-49
2022/12/13 05:04:48;;;;;;;20.57;13.67;;;;;;;;;;5013775;28;20487;-48
2022/12/13 05:07:14;;;;;;;23.37;14.20;;;;;;;;;;5013617;28;20449;-47
2022/12/13 05:09:40;;;;;;;22.83;13.70;;;;;;;;;;5013644;28;21018;-47
2022/12/13 05:12:06;;;;;;;19.67;12.87;;;;;;;;;;5013758;28;20526;-49
2022/12/13 05:14:32;;;;;;;19.83;12.30;;;;;;;;;;5013383;28;20491;-48
2022/12/13 05:16:58;;;;;;;20.50;12.47;;;;;;;;;;5013491;28;20524;-48
2022/12/13 05:19:24;;;;;;;23.63;14.17;;;;;;;;;;5013719;28;20476;-49
2022/12/13 05:21:52;;;;;;;19.80;13.97;;;;;;;;;;5013371;28;20503;-49
2022/12/13 05:24:18;;;;;;;22.60;13.00;;;;;;;;;;5013365;28;20459;-49
2022/12/13 05:26:44;;;;;;;23.53;13.20;;;;;;;;;;5013192;28;20943;-49
2022/12/13 05:29:10;;;;;;;21.87;14.23;;;;;;;;;;5013409;28;21001;-48
2022/12/13 05:31:36;;;;;;;23.87;13.60;;;;;;;;;;5013325;28;20443;-48
2022/12/13 05:34:02;;;;;;;19.63;13.27;;;;;;;;;;5013120;28;20456;-49
2022/12/13 05:36:28;;;;;;;22.43;12.90;;;;;;;;;;5013011;28;20527;-48
2022/12/13 05:38:55;;;;;;;22.30;14.50;;;;;;;;;;5013133;28;20551;-49
2022/12/13 05:41:25;;;;;;;21.10;13.17;;;;;;;;;;5013132;28;20969;-48
2022/12/13 05:43:51;;;;;;;20.40;12.47;;;;;;;;;;5013036;28;20931;-48
2022/12/13 05:46:17;;;;;;;19.63;13.60;;;;;;;;;;5012952;28;20436;-48
2022/12/13 05:48:43;;;;;;;24.83;14.70;;;;;;;;;;5012708;28;20433;-49
2022/12/13 05:51:10;;;;;;;21.83;13.50;;;;;;;;;;5013130;28;20436;-49
2022/12/13 05:53:36;;;;;;;21.53;14.30;;;;;;;;;;5012772;28;20957;-48
2022/12/13 05:56:03;;;;;;;20.13;12.50;;;;;;;;;;5012370;28;20853;-49
2022/12/13 05:58:29;;;;;;;25.17;13.60;;;;;;;;;;5012565;28;20484;-49
2022/12/13 06:01:03;;;;;;;21.27;13.30;;;;;;;;;;5012873;28;20448;-48
2022/12/13 06:03:29;;;;;;;21.30;13.47;;;;;;;;;;5012535;28;20495;-49
2022/12/13 06:05:55;;;;;;;22.10;11.83;;;;;;;;;;5012729;28;20440;-49
2022/12/13 06:08:21;;;;;;;21.53;13.57;;;;;;;;;;5012632;28;20977;-49
2022/12/13 06:10:53;;;;;;;19.17;13.20;;;;;;;;;;5012379;28;20428;-49
2022/12/13 06:13:20;;;;;;;26.20;15.40;;;;;;;;;;5012449;28;20433;-49
2022/12/13 06:15:46;;;;;;;22.10;13.77;;;;;;;;;;5012284;28;20520;-49
2022/12/13 06:18:12;;;;;;;22.80;13.07;;;;;;;;;;5011937;28;21065;-49
2022/12/13 06:20:38;;;;;;;18.77;13.37;;;;;;;;;;5012214;28;20554;-49
2022/12/13 06:23:04;;;;;;;23.10;12.60;;;;;;;;;;5012157;28;20464;-49
2022/12/13 06:25:30;;;;;;;24.57;13.60;;;;;;;;;;5012071;28;20440;-49
2022/12/13 06:27:56;;;;;;;21.87;12.93;;;;;;;;;;5012069;28;20902;-49
2022/12/13 06:30:23;;;;;;;21.80;12.97;;;;;;;;;;5012016;28;20445;-49
2022/12/13 06:32:49;;;;;;;23.53;12.97;;;;;;;;;;5011852;28;20444;-49
2022/12/13 06:35:15;;;;;;;20.40;13.17;;;;;;;;;;5011758;28;20894;-49
2022/12/13 06:37:41;;;;;;;24.90;14.93;;;;;;;;;;5011832;28;20473;-49
2022/12/13 06:40:08;;;;;;;24.03;14.13;;;;;;;;;;5011868;28;20990;-49
2022/12/13 06:42:34;;;;;;;22.67;13.23;;;;;;;;;;5011738;28;20449;-49
2022/12/13 06:45:00;;;;;;;23.50;13.47;;;;;;;;;;5011799;28;20443;-49
2022/12/13 06:47:28;;;;;;;23.97;15.10;;;;;;;;;;5011824;28;20804;-49
2022/12/13 06:49:53;;;;;;;21.53;12.87;;;;;;;;;;5011972;28;20902;-49
2022/12/13 06:52:20;;;;;;;22.90;13.13;;;;;;;;;;5011857;28;20584;-49
2022/12/13 06:54:46;;;;;;;21.57;12.83;;;;;;;;;;5011432;28;20432;-49
2022/12/13 06:57:12;;;;;;;24.03;13.60;;;;;;;;;;5011643;28;20445;-50
2022/12/13 06:59:38;;;;;;;18.77;12.67;;;;;;;;;;5011752;28;20511;-47
2022/12/13 07:02:04;;;;;;;20.80;13.13;;;;;;;;;;5011659;28;20440;-48
2022/12/13 07:04:32;;;;;;;22.30;14.63;;;;;;;;;;5011434;28;20536;-46
2022/12/13 07:06:58;;;;;;;27.50;15.43;;;;;;;;;;5011147;28;20451;-47
2022/12/13 07:09:24;;;;;;;27.20;15.57;;;;;;;;;;5011384;28;20435;-47
2022/12/13 07:11:50;;;;;;;23.77;15.10;;;;;;;;;;5011680;28;20814;-46
2022/12/13 07:14:16;;;;;;;22.77;14.33;;;;;;;;;;5011511;28;20438;-47
2022/12/13 07:16:42;;;;;;;21.30;14.13;;;;;;;;;;5011241;28;20790;-48
2022/12/13 07:19:10;;;;;;;25.13;14.43;;;;;;;;;;5011446;28;20597;-47
2022/12/13 07:21:38;;;;;;;24.37;14.00;;;;;;;;;;5011256;28;20858;-46
2022/12/13 07:24:05;;;;;;;25.30;14.43;;;;;;;;;;5011420;28;20448;-46
2022/12/13 07:26:31;;;;;;;21.40;13.13;;;;;;;;;;5011220;28;20516;-46
2022/12/13 07:28:57;;;;;;;19.27;12.97;;;;;;;;;;5011469;28;20651;-46
2022/12/13 07:31:23;;;;;;;21.03;13.17;;;;;;;;;;5011402;28;20996;-46
2022/12/13 07:33:49;;;;;;;21.07;12.93;;;;;;;;;;5010974;28;21020;-46
2022/12/13 07:36:16;;;;;;;18.70;12.60;;;;;;;;;;5011149;28;20440;-46
2022/12/13 07:38:43;;;;;;;21.97;13.23;;;;;;;;;;5010954;28;20498;-46
2022/12/13 07:41:09;;;;;;;19.80;12.40;;;;;;;;;;5011259;28;20942;-47
2022/12/13 07:43:36;;;;;;;23.60;13.07;;;;;;;;;;5011089;28;20463;-46
2022/12/13 07:46:03;;;;;;;21.77;12.67;;;;;;;;;;5011120;28;20693;-46
2022/12/13 07:48:29;;;;;;;20.23;13.00;;;;;;;;;;5010964;28;20437;-47
2022/12/13 07:51:00;;;;;;;18.27;12.53;;;;;;;;;;5011069;28;20487;-47
2022/12/13 07:53:26;;;;;;;28.00;16.27;;;;;;;;;;5011211;28;20787;-46
2022/12/13 07:55:53;;;;;;;25.33;16.40;;;;;;;;;;5011153;28;20424;-46
2022/12/13 07:58:19;;;;;;;24.27;13.77;;;;;;;;;;5010955;28;20534;-47
2022/12/13 08:00:45;;;;;;;21.67;13.03;;;;;;;;;;5010863;28;20436;-47
2022/12/13 08:03:12;;;;;;;19.13;12.10;;;;;;;;;;5011138;28;20527;-46
2022/12/13 08:05:39;;;;;;;20.73;13.63;;;;;;;;;;5011031;28;20440;-47
2022/12/13 08:08:05;;;;;;;21.63;13.73;;;;;;;;;;5010910;28;20440;-47
2022/12/13 08:10:32;;;;;;;20.77;14.10;;;;;;;;;;5010868;28;20441;-47
2022/12/13 08:13:01;;;;;;;18.27;12.27;;;;;;;;;;5010708;28;20460;-48
2022/12/13 08:15:27;;;;;;;18.13;11.83;;;;;;;;;;5010726;28;20992;-47
2022/12/13 08:17:55;;;;;;;20.37;12.33;;;;;;;;;;5010868;28;20561;-47
2022/12/13 08:20:21;;;;;;;23.93;13.40;;;;;;;;;;5014166;28;20482;-47
2022/12/13 08:22:53;;;;;;;19.40;12.70;;;;;;;;;;5014406;28;20424;-47
2022/12/13 08:25:19;;;;;;;21.73;13.07;;;;;;;;;;5014511;28;20467;-47
2022/12/13 08:27:45;;;;;;;18.30;13.47;;;;;;;;;;5014327;28;20437;-47
2022/12/13 08:30:13;;;;;;;18.47;12.50;;;;;;;;;;5014406;28;20486;-47
2022/12/13 08:32:39;;;;;;;19.47;12.07;;;;;;;;;;5014308;28;20478;-47
2022/12/13 08:35:06;;;;;;;20.83;13.33;;;;;;;;;;5014326;28;20878;-46
2022/12/13 08:37:32;;;;;;;21.90;12.83;;;;;;;;;;5013995;28;20812;-47
2022/12/13 08:39:58;;;;;;;22.30;14.17;;;;;;;;;;5013963;28;20480;-47
2022/12/13 08:42:24;;;;;;;21.43;14.03;;;;;;;;;;5014333;28;20440;-46
2022/12/13 08:44:51;;;;;;;23.13;13.70;;;;;;;;;;5013955;28;20428;-48
2022/12/13 08:47:18;;;;;;;23.63;15.53;;;;;;;;;;5014125;28;20440;-48
2022/12/13 08:49:44;;;;;;;25.03;14.90;;;;;;;;;;5013852;28;20854;-47
2022/12/13 08:52:10;;;;;;;20.83;13.77;;;;;;;;;;5014086;28;20455;-47
2022/12/13 08:54:36;;;;;;;20.30;13.33;;;;;;;;;;5013974;28;20793;-47
2022/12/13 08:57:02;;;;;;;21.77;13.60;;;;;;;;;;5013791;28;20974;-47
2022/12/13 08:59:28;;;;;;;21.03;13.40;;;;;;;;;;5013658;28;21083;-47
2022/12/13 09:01:54;;;;;;;23.30;14.53;;;;;;;;;;5013839;28;21009;-47
2022/12/13 09:04:22;;;;;;;19.80;13.43;;;;;;;;;;5013626;28;20436;-48
2022/12/13 09:06:48;;;;;;;22.67;14.83;;;;;;;;;;5013656;28;20535;-48
2022/12/13 09:09:14;;;;;;;17.97;12.80;;;;;;;;;;5013641;28;20517;-48
2022/12/13 09:11:40;;;;;;;23.00;14.57;;;;;;;;;;5013658;28;20448;-48
2022/12/13 09:14:06;;;;;;;20.13;14.90;;;;;;;;;;5013760;28;20197;-48
2022/12/13 09:16:35;;;;;;;20.13;14.27;;;;;;;;;;5013517;28;20617;-48
2022/12/13 09:19:01;;;;;;;20.30;14.47;;;;;;;;;;5013515;28;20476;-48
2022/12/13 09:21:29;;;;;;;19.97;14.30;;;;;;;;;;5013443;28;20798;-48
2022/12/13 09:23:55;;;;;;;21.90;14.93;;;;;;;;;;5013510;28;20464;-49
2022/12/13 09:26:21;;;;;;;20.30;13.53;;;;;;;;;;5013450;28;20523;-48
2022/12/13 09:28:47;;;;;;;22.73;14.97;;;;;;;;;;5013126;28;20512;-49
2022/12/13 09:31:14;;;;;;;19.70;14.13;;;;;;;;;;5012404;28;20232;-48
2022/12/13 09:33:40;;;;;;;20.57;14.40;;;;;;;;;;5013070;28;20471;-47
2022/12/13 09:36:08;;;;;;;19.10;14.23;;;;;;;;;;5013175;28;20480;-47
2022/12/13 09:38:35;;;;;;;21.93;14.93;;;;;;;;;;5012703;28;21149;-49
2022/12/13 09:41:05;;;;;;;21.60;15.13;;;;;;;;;;5013008;28;20443;-49
2022/12/13 09:43:32;;;;;;;17.87;14.03;;;;;;;;;;5012984;28;20487;-49
2022/12/13 09:45:58;;;;;;;20.87;14.40;;;;;;;;;;5012952;28;20202;-49
2022/12/13 09:48:24;;;;;;;21.87;15.10;;;;;;;;;;5013013;28;20248;-49
2022/12/13 09:50:51;;;;;;;22.03;15.63;;;;;;;;;;5012819;28;20202;-48
2022/12/13 09:53:18;;;;;;;21.13;14.93;;;;;;;;;;5013108;28;20248;-48
2022/12/13 09:55:46;;;;;;;24.23;16.17;;;;;;;;;;5012876;28;20259;-45
2022/12/13 09:58:14;;;;;;;21.13;14.87;;;;;;;;;;5012718;28;20228;-46
2022/12/13 10:00:40;;;;;;;22.30;15.80;;;;;;;;;;5012812;28;20202;-46
2022/12/13 10:03:12;;;;;;;22.23;16.40;;;;;;;;;;5005543;28;20198;-47
2022/12/13 10:05:38;;;;;;;21.87;15.83;;;;;;;;;;4993485;28;20206;-48
2022/12/13 10:08:05;;;;;;;22.97;16.70;;;;;;;;;;4993275;28;20759;-47
2022/12/13 10:10:31;;;;;;;22.53;16.43;;;;;;;;;;4993265;28;20206;-48
2022/12/13 10:13:03;;;;;;;22.60;16.43;;;;;;;;;;4992982;28;20202;-48
2022/12/13 10:15:32;;;;;;;22.73;15.63;;;;;;;;;;4992996;28;20610;-48
2022/12/13 10:24:11;;;;;;;23.80;16.70;;;;;;;;;;4993035;28;20403;-47
2022/12/13 10:26:37;;;;;;;25.40;16.97;;;;;;;;;;4992959;28;20441;-47
2022/12/13 10:29:05;;;;;;;22.73;16.03;;;;;;;;;;4992926;28;20446;-47
2022/12/13 10:31:38;;;;;;;23.33;15.70;;;;;;;;;;4992868;28;20437;-54
2022/12/13 10:34:04;;;;;;;23.27;16.33;;;;;;;;;;4992541;28;21109;-47
2022/12/13 10:36:31;;;;;;;21.97;16.00;;;;;;;;;;4992759;28;20430;-48
2022/12/13 10:38:58;;;;;;;23.30;16.83;;;;;;;;;;4992628;28;20493;-48
2022/12/13 10:41:28;;;;;;;22.70;16.20;;;;;;;;;;4992725;28;20947;-49
2022/12/13 10:44:09;;;;;;;25.67;17.03;;;;;;;;;;4992863;28;20449;-49
2022/12/13 10:49:46;;;;;;;23.63;16.63;;;;;;;;;;4992714;28;20483;-50
2022/12/13 10:52:21;;;;;;;21.43;15.23;;;;;;;;;;4992584;28;20971;-48
2022/12/13 10:54:47;;;;;;;22.50;15.43;;;;;;;;;;4992485;28;20441;-48
2022/12/13 10:57:14;;;;;;;21.67;15.20;;;;;;;;;;4992579;28;20433;-48
2022/12/13 10:59:40;;;;;;;21.17;15.47;;;;;;;;;;4992454;28;20532;-48
2022/12/13 11:02:25;;;;;;;23.40;16.43;;;;;;;;;;4992473;28;20443;-48
2022/12/13 11:04:52;;;;;;;21.77;16.07;;;;;;;;;;4992181;28;20909;-48
2022/12/13 11:07:22;;;;;;;22.17;16.37;;;;;;;;;;4992303;28;20439;-48
2022/12/13 11:09:48;;;;;;;20.63;15.57;;;;;;;;;;4992108;28;20453;-48
2022/12/13 11:12:15;;;;;;;23.60;17.23;;;;;;;;;;4992173;28;20198;-48
2022/12/13 11:14:48;;;;;;;23.23;16.90;;;;;;;;;;4991898;28;20801;-50
2022/12/13 11:17:16;;;;;;;22.17;16.43;;;;;;;;;;4992254;28;20445;-49
2022/12/13 11:19:44;;;;;;;19.50;15.07;;;;;;;;;;4992131;28;20509;-49
2022/12/13 11:22:18;;;;;;;22.67;16.17;;;;;;;;;;4992336;28;20209;-50
2022/12/13 11:24:49;;;;;;;21.20;16.57;;;;;;;;;;4991838;28;20210;-49
2022/12/13 11:27:23;;;;;;;22.13;16.83;;;;;;;;;;4992251;28;20272;-50
2022/12/13 11:30:13;;;;;;;20.90;16.07;;;;;;;;;;4992125;28;20198;-50
2022/12/13 11:32:56;;;;;;;22.70;16.60;;;;;;;;;;4977184;28;20205;-49
2022/12/13 11:35:25;;;;;;;21.13;15.33;;;;;;;;;;4992143;28;20631;-49
2022/12/13 11:38:00;;;;;;;21.50;15.87;;;;;;;;;;4991933;28;20194;-49
2022/12/13 11:40:27;;;;;;;23.20;15.87;;;;;;;;;;4992205;28;20206;-49
2022/12/13 11:42:55;;;;;;;21.97;16.07;;;;;;;;;;4992108;28;20261;-49
2022/12/13 11:45:24;;;;;;;23.73;17.10;;;;;;;;;;4992026;28;20237;-49
2022/12/13 11:47:55;;;;;;;20.10;16.03;;;;;;;;;;4991787;28;20614;-49
2022/12/13 11:50:23;;;;;;;21.70;15.93;;;;;;;;;;4992064;28;20282;-50
2022/12/13 11:52:51;;;;;;;22.20;16.03;;;;;;;;;;4991863;28;20197;-50
2022/12/13 11:55:21;;;;;;;24.27;16.23;;;;;;;;;;4995141;28;20204;-50
2022/12/13 11:57:52;;;;;;;20.60;16.30;;;;;;;;;;4995618;28;20264;-50
2022/12/13 12:00:26;;;;;;;21.73;15.87;;;;;;;;;;4995783;28;20204;-49
2022/12/13 12:02:56;;;;;;;22.83;16.93;;;;;;;;;;4995807;28;20255;-52
2022/12/13 12:05:29;;;;;;;19.97;15.17;;;;;;;;;;4995780;28;20293;-50
2022/12/13 12:07:59;;;;;;;20.57;15.90;;;;;;;;;;4995487;28;20728;-52
2022/12/13 12:10:30;;;;;;;20.63;15.70;;;;;;;;;;4995653;28;20281;-50
2022/12/13 12:12:58;;;;;;;18.63;15.43;;;;;;;;;;4995472;28;20301;-49
2022/12/13 12:15:28;;;;;;;19.20;15.90;;;;;;;;;;4995611;28;20202;-51
2022/12/13 12:17:55;;;;;;;19.50;15.60;;;;;;;;;;4995316;28;20206;-50
2022/12/13 12:20:26;;;;;;;21.97;16.87;;;;;;;;;;4995545;28;20202;-49
2022/12/13 12:22:56;;;;;;;19.77;16.37;;;;;;;;;;4995356;28;20214;-50
2022/12/13 12:25:27;;;;;;;21.17;16.10;;;;;;;;;;4995348;28;20186;-48
2022/12/13 12:27:58;;;;;;;22.03;15.77;;;;;;;;;;4995214;28;20301;-47
2022/12/13 12:30:29;;;;;;;21.87;15.93;;;;;;;;;;4995367;28;20206;-49
2022/12/13 12:33:02;;;;;;;22.00;17.07;;;;;;;;;;4995089;28;20202;-48
2022/12/13 12:35:38;;;;;;;21.13;17.03;;;;;;;;;;4994942;28;20288;-47
2022/12/13 12:38:10;;;;;;;20.47;16.83;;;;;;;;;;4994628;28;20284;-47
2022/12/13 12:40:51;;;;;;;23.43;17.73;;;;;;;;;;4995028;28;20202;-47
2022/12/13 12:43:22;;;;;;;22.43;16.60;;;;;;;;;;4990254;28;20206;-46
2022/12/13 12:45:55;;;;;;;23.57;17.33;;;;;;;;;;4994757;28;20676;-47
2022/12/13 12:48:30;;;;;;;19.90;16.10;;;;;;;;;;4994916;28;20233;-48
2022/12/13 12:51:01;;;;;;;23.00;17.43;;;;;;;;;;4994780;28;20229;-47
2022/12/13 12:53:32;;;;;;;23.60;17.50;;;;;;;;;;4994716;28;20213;-47
2022/12/13 12:56:05;;;;;;;22.43;17.03;;;;;;;;;;4994676;28;20204;-46
2022/12/13 12:58:38;;;;;;;22.83;16.23;;;;;;;;;;4994771;28;20469;-47
2022/12/13 13:01:11;;;;;;;25.03;17.70;;;;;;;;;;4993003;28;20566;-46
2022/12/13 13:03:38;;;;;;;23.17;16.97;;;;;;;;;;4994276;28;20440;-46
2022/12/13 13:06:05;;;;;;;23.73;17.57;;;;;;;;;;4992843;28;20465;-46
2022/12/13 13:08:34;;;;;;;21.70;16.73;;;;;;;;;;4994040;28;20449;-46
2022/12/13 13:11:01;;;;;;;24.53;17.10;;;;;;;;;;4993950;28;20944;-46
2022/12/13 13:13:44;;;;;;;23.43;17.27;;;;;;;;;;4994152;28;20449;-46
2022/12/13 13:16:25;;;;;;;23.70;17.90;;;;;;;;;;4994234;28;20446;-46
2022/12/13 13:18:52;;;;;;;23.73;17.77;;;;;;;;;;4993732;28;20477;-46
2022/12/13 13:21:42;;;;;;;22.30;16.80;;;;;;;;;;4994009;28;20775;-46
2022/12/13 13:24:13;;;;;;;21.63;16.70;;;;;;;;;;4993983;28;20429;-47
2022/12/13 13:26:43;;;;;;;25.70;17.53;;;;;;;;;;4994199;28;20516;-47
2022/12/13 13:29:39;;;;;;;24.67;17.73;;;;;;;;;;4994346;28;20440;-47
2022/12/13 13:32:25;;;;;;;24.20;18.73;;;;;;;;;;4994076;28;20571;-47
2022/12/13 13:34:52;;;;;;;24.47;17.13;;;;;;;;;;4993865;28;20501;-47
2022/12/13 13:37:44;;;;;;;24.30;17.13;;;;;;;;;;4993875;28;20943;-47
2022/12/13 13:40:24;;;;;;;25.63;18.07;;;;;;;;;;4993769;28;20481;-47
2022/12/13 13:43:02;;;;;;;25.20;18.43;;;;;;;;;;4993832;28;20437;-47
2022/12/13 13:45:28;;;;;;;27.80;18.23;;;;;;;;;;4991218;28;20477;-47
2022/12/13 13:48:13;;;;;;;25.13;18.10;;;;;;;;;;4992617;28;20529;-46
2022/12/13 13:50:49;;;;;;;25.30;18.47;;;;;;;;;;4993019;28;20445;-46
2022/12/13 13:53:36;;;;;;;27.63;18.50;;;;;;;;;;4993064;28;20447;-47
2022/12/13 13:56:10;;;;;;;28.27;20.67;;;;;;;;;;4968029;28;20449;-46
2022/12/13 13:58:52;;;;;;;28.70;19.33;;;;;;;;;;4993059;28;20477;-45
2022/12/13 14:01:34;;;;;;;33.57;21.07;;;;;;;;;;4992927;28;20442;-46
2022/12/13 14:04:21;;;;;;;33.80;21.40;;;;;;;;;;4992673;28;20472;-46
2022/12/13 14:07:05;;;;;;;31.97;20.70;;;;;;;;;;4992644;28;20448;-46
2022/12/13 14:09:43;;;;;;;33.67;20.67;;;;;;;;;;4992924;28;20437;-46
2022/12/13 14:12:23;;;;;;;34.93;22.47;;;;;;;;;;4992923;28;20987;-46
2022/12/13 14:15:17;;;;;;;32.37;22.37;;;;;;;;;;4992599;28;20450;-46
2022/12/13 14:17:53;;;;;;;29.13;19.77;;;;;;;;;;4992309;28;20499;-46
2022/12/13 14:20:32;;;;;;;34.43;21.23;;;;;;;;;;4992446;28;20440;-46
2022/12/13 14:23:00;;;;;;;32.90;22.20;;;;;;;;;;4992515;28;20857;-46
2022/12/13 14:25:38;;;;;;;34.33;23.00;;;;;;;;;;4992457;28;20970;-46
2022/12/13 14:28:11;;;;;;;30.60;21.37;;;;;;;;;;4992594;28;20792;-46
2022/12/13 14:30:41;;;;;;;30.30;20.90;;;;;;;;;;4992729;28;20496;-46
2022/12/13 14:33:13;;;;;;;31.13;20.37;;;;;;;;;;4992516;28;20488;-46
2022/12/13 14:35:50;;;;;;;28.97;20.27;;;;;;;;;;4992320;28;20964;-46
2022/12/13 14:38:21;;;;;;;29.30;21.17;;;;;;;;;;4992056;28;20577;-46
2022/12/13 14:40:48;;;;;;;32.73;21.50;;;;;;;;;;4991993;28;20980;-46